createdAt,value
2022-12-15T00:01:51.829Z,-3.83
2022-12-15T00:07:14.695Z,-3.81
2022-12-15T00:12:38.970Z,-3.83
2022-12-15T00:18:03.245Z,-3.88
2022-12-15T00:23:31.587Z,-3.84
2022-12-15T00:28:56.342Z,-3.81
2022-12-15T00:34:20.188Z,-3.81
2022-12-15T00:39:25.622Z,-3.82
2022-12-15T00:44:30.237Z,-3.86
2022-12-15T00:49:54.085Z,-3.87
2022-12-15T00:55:17.891Z,-3.89
2022-12-15T01:00:42.638Z,-3.93
2022-12-15T01:06:04.980Z,-3.86
2022-12-15T01:11:28.236Z,-3.82
2022-12-15T01:16:52.113Z,-3.79
2022-12-15T01:21:57.141Z,-3.79
2022-12-15T01:27:02.440Z,-3.78
2022-12-15T01:32:07.045Z,-3.80
2022-12-15T01:37:11.494Z,-3.88
2022-12-15T01:42:16.546Z,-3.90
2022-12-15T01:47:26.077Z,-3.85
2022-12-15T01:52:31.504Z,-3.82
2022-12-15T01:57:38.296Z,-3.84
2022-12-15T02:02:43.056Z,-3.85
2022-12-15T02:07:47.032Z,-3.87
2022-12-15T02:13:07.493Z,-3.91
2022-12-15T02:18:23.294Z,-3.95
2022-12-15T02:23:53.235Z,-3.86
2022-12-15T02:29:09.311Z,-3.81
2022-12-15T02:34:24.363Z,-3.80
2022-12-15T02:39:29.868Z,-3.82
2022-12-15T02:44:54.988Z,-3.84
2022-12-15T02:50:31.492Z,-3.86
2022-12-15T02:55:40.742Z,-3.87
2022-12-15T03:00:59.148Z,-3.89
2022-12-15T03:06:06.244Z,-3.83
2022-12-15T03:11:12.486Z,-3.80
2022-12-15T03:16:17.086Z,-3.81
2022-12-15T03:21:22.307Z,-3.81
2022-12-15T03:26:26.945Z,-3.85
2022-12-15T03:31:30.670Z,-3.83
2022-12-15T03:36:35.530Z,-3.82
2022-12-15T03:41:40.317Z,-3.86
2022-12-15T03:46:46.006Z,-3.87
2022-12-15T03:51:49.507Z,-3.86
2022-12-15T03:56:54.494Z,-3.87
2022-12-15T04:01:59.921Z,-3.90
2022-12-15T04:07:04.926Z,-3.91
2022-12-15T04:12:13.194Z,-3.90
2022-12-15T04:17:18.257Z,-3.83
2022-12-15T04:22:21.919Z,-3.77
2022-12-15T04:27:46.316Z,-3.76
2022-12-15T04:33:11.195Z,-3.75
2022-12-15T04:38:34.167Z,-3.77
2022-12-15T04:44:00.082Z,-3.78
2022-12-15T04:49:23.663Z,-3.77
2022-12-15T04:54:47.256Z,-3.79
2022-12-15T05:00:11.891Z,-3.82
2022-12-15T05:05:34.448Z,-3.86
2022-12-15T05:10:56.527Z,-3.86
2022-12-15T05:16:18.463Z,-3.80
2022-12-15T05:21:41.319Z,-3.75
2022-12-15T05:27:05.146Z,-3.77
2022-12-15T05:32:10.233Z,-3.80
2022-12-15T05:37:14.612Z,-3.83
2022-12-15T05:42:19.272Z,-3.85
2022-12-15T05:47:24.238Z,-3.85
2022-12-15T05:52:27.762Z,-3.85
2022-12-15T05:57:31.615Z,-3.80
2022-12-15T06:02:36.354Z,-3.78
2022-12-15T06:07:40.630Z,-3.76
2022-12-15T06:12:45.496Z,-3.76
2022-12-15T06:17:49.931Z,-3.81
2022-12-15T06:22:53.936Z,-3.77
2022-12-15T06:28:01.710Z,-3.72
2022-12-15T06:33:07.917Z,-3.69
2022-12-15T06:38:12.647Z,-3.72
2022-12-15T06:43:17.527Z,-3.75
2022-12-15T06:48:21.867Z,-3.68
2022-12-15T06:53:26.144Z,-3.64
2022-12-15T06:58:31.248Z,-3.62
2022-12-15T07:03:37.353Z,-3.61
2022-12-15T07:08:42.110Z,-3.64
2022-12-15T07:13:50.132Z,-3.63
2022-12-15T07:18:54.512Z,-3.57
2022-12-15T07:23:59.171Z,-3.58
2022-12-15T07:29:04.720Z,-3.57
2022-12-15T07:34:09.877Z,-3.56
2022-12-15T07:39:13.798Z,-3.50
2022-12-15T07:44:19.243Z,-3.45
2022-12-15T07:52:44.859Z,-3.35
2022-12-15T07:57:49.075Z,-3.33
2022-12-15T08:02:53.230Z,-3.26
2022-12-15T08:07:59.173Z,-3.23
2022-12-15T08:13:04.079Z,-3.21
2022-12-15T08:18:09.797Z,-3.20
2022-12-15T08:23:14.945Z,-3.12
2022-12-15T08:28:19.066Z,-3.03
2022-12-15T08:33:23.997Z,-2.95
2022-12-15T08:38:28.255Z,-2.90
2022-12-15T08:43:33.998Z,-2.83
2022-12-15T08:48:39.209Z,-2.75
2022-12-15T08:53:44.610Z,-2.77
2022-12-15T08:58:51.174Z,-2.73
2022-12-15T09:03:57.718Z,-2.61
2022-12-15T09:09:05.182Z,-2.53
2022-12-15T09:14:10.192Z,-2.36
2022-12-15T09:19:15.118Z,-2.26
2022-12-15T09:24:28.883Z,-2.23
2022-12-15T09:29:38.699Z,-2.18
2022-12-15T09:34:42.853Z,-2.14
2022-12-15T09:39:46.734Z,-2.06
2022-12-15T09:45:00.270Z,-2.01
2022-12-15T09:50:11.319Z,-1.99
2022-12-15T09:55:24.419Z,-1.96
2022-12-15T10:00:52.576Z,-1.89
2022-12-15T10:06:22.287Z,-1.74
2022-12-15T10:11:50.635Z,-1.60
2022-12-15T10:17:19.048Z,-1.53
2022-12-15T10:22:31.883Z,-1.56
2022-12-15T10:27:58.719Z,-1.50
2022-12-15T10:33:06.591Z,-1.29
2022-12-15T10:38:53.029Z,-1.08
2022-12-15T10:43:59.072Z,-1.03
2022-12-15T10:49:09.755Z,-0.95
2022-12-15T10:54:16.809Z,-0.81
2022-12-15T10:59:34.533Z,-0.78
2022-12-15T11:04:38.865Z,-0.80
2022-12-15T11:09:43.454Z,-0.84
2022-12-15T11:14:52.467Z,-0.76
2022-12-15T11:20:03.844Z,-0.65
2022-12-15T11:25:36.614Z,-0.63
2022-12-15T11:30:48.423Z,-0.53
2022-12-15T11:36:20.813Z,-0.48
2022-12-15T11:41:43.840Z,-0.50
2022-12-15T11:46:57.710Z,-0.52
2022-12-15T11:52:11.340Z,-0.53
2022-12-15T11:57:42.014Z,-0.45
2022-12-15T12:03:09.661Z,-0.43
2022-12-15T12:08:36.506Z,-0.46
2022-12-15T12:13:59.353Z,-0.42
2022-12-15T12:19:21.170Z,-0.43
2022-12-15T12:24:32.893Z,-0.39
2022-12-15T12:30:01.246Z,-0.39
2022-12-15T12:35:30.344Z,-0.41
2022-12-15T12:40:41.195Z,-0.56
2022-12-15T12:46:26.512Z,-0.69
2022-12-15T12:51:34.984Z,-0.71
2022-12-15T12:56:43.854Z,-0.82
2022-12-15T13:01:49.693Z,-0.94
2022-12-15T13:06:56.512Z,-1.04
2022-12-15T13:12:34.298Z,-1.07
2022-12-15T13:17:43.044Z,-1.14
2022-12-15T13:22:50.520Z,-1.14
2022-12-15T13:28:01.639Z,-1.15
2022-12-15T13:33:19.811Z,-1.20
2022-12-15T13:38:44.097Z,-1.22
2022-12-15T13:43:50.507Z,-1.33
2022-12-15T13:49:08.168Z,-1.39
2022-12-15T13:54:19.436Z,-1.47
2022-12-15T14:00:08.396Z,-1.50
2022-12-15T14:05:13.689Z,-1.57
2022-12-15T14:10:21.969Z,-1.67
2022-12-15T14:15:30.649Z,-1.71
2022-12-15T14:20:42.219Z,-1.80
2022-12-15T14:25:56.545Z,-1.91
2022-12-15T14:31:05.634Z,-2.00
2022-12-15T14:36:13.880Z,-2.10
2022-12-15T14:41:41.131Z,-2.13
2022-12-15T14:46:50.210Z,-2.17
2022-12-15T14:52:07.331Z,-2.22
2022-12-15T14:57:26.211Z,-2.32
2022-12-15T15:02:31.186Z,-2.39
2022-12-15T15:07:39.597Z,-2.43
2022-12-15T15:12:46.343Z,-2.35
2022-12-15T15:17:53.481Z,-2.34
2022-12-15T15:23:12.562Z,-2.37
2022-12-15T15:28:30.135Z,-2.42
2022-12-15T15:33:35.412Z,-2.43
2022-12-15T15:38:41.210Z,-2.46
2022-12-15T15:43:44.781Z,-2.49
2022-12-15T15:48:50.161Z,-2.47
2022-12-15T15:53:58.549Z,-2.38
2022-12-15T15:59:11.653Z,-2.36
2022-12-15T16:04:15.093Z,-2.40
2022-12-15T16:09:19.946Z,-2.47
2022-12-15T16:14:24.431Z,-2.49
2022-12-15T16:19:30.226Z,-2.51
2022-12-15T16:24:37.610Z,-2.44
2022-12-15T16:29:43.364Z,-2.49
2022-12-15T16:34:47.516Z,-2.55
2022-12-15T16:39:51.409Z,-2.62
2022-12-15T16:44:56.417Z,-2.63
2022-12-15T16:50:00.701Z,-2.55
2022-12-15T16:55:05.705Z,-2.50
2022-12-15T17:00:25.943Z,-2.54
2022-12-15T17:05:34.880Z,-2.60
2022-12-15T17:10:38.876Z,-2.60
2022-12-15T17:15:43.267Z,-2.59
2022-12-15T17:20:48.173Z,-2.60
2022-12-15T17:31:25.971Z,-2.62
2022-12-15T17:36:31.786Z,-2.62
2022-12-15T17:41:58.611Z,-2.57
2022-12-15T17:46:59.958Z,-2.60
2022-12-15T17:52:17.110Z,-2.67
2022-12-15T17:57:20.704Z,-2.74
2022-12-15T18:02:24.811Z,-2.83
2022-12-15T18:07:28.761Z,-2.96
2022-12-15T18:12:32.560Z,-3.14
2022-12-15T18:17:36.866Z,-3.37
2022-12-15T18:22:40.898Z,-3.54
2022-12-15T18:27:46.303Z,-3.67
2022-12-15T18:32:56.654Z,-3.81
2022-12-15T18:38:01.964Z,-4.04
2022-12-15T18:43:17.561Z,-4.34
2022-12-15T18:48:25.653Z,-4.68
2022-12-15T18:53:33.026Z,-5.01
2022-12-15T18:58:42.917Z,-5.25
2022-12-15T19:03:46.646Z,-5.50
2022-12-15T19:08:51.760Z,-5.76
2022-12-15T19:13:56.946Z,-6.16
2022-12-15T19:19:20.031Z,-6.48
2022-12-15T19:24:49.622Z,-6.63
2022-12-15T19:29:55.112Z,-6.76
2022-12-15T19:34:59.838Z,-6.94
2022-12-15T19:40:07.448Z,-7.20
2022-12-15T19:45:15.918Z,-7.47
2022-12-15T19:50:26.376Z,-7.76
2022-12-15T19:55:34.151Z,-8.00
2022-12-15T20:00:40.608Z,-8.23
2022-12-15T20:05:45.526Z,-8.32
2022-12-15T20:10:52.083Z,-8.52
2022-12-15T20:15:57.095Z,-8.76
2022-12-15T20:21:02.190Z,-8.88
2022-12-15T20:26:08.105Z,-8.98
2022-12-15T20:31:18.900Z,-9.02
2022-12-15T20:36:27.603Z,-9.00
2022-12-15T20:41:32.128Z,-9.15
2022-12-15T20:46:37.543Z,-9.32
2022-12-15T20:51:42.985Z,-9.43
2022-12-15T20:56:48.190Z,-9.41
2022-12-15T21:01:53.311Z,-9.57
2022-12-15T21:07:00.432Z,-9.78
2022-12-15T21:12:25.677Z,-9.84
2022-12-15T21:17:31.646Z,-9.71
2022-12-15T21:22:36.321Z,-9.65
2022-12-15T21:27:41.096Z,-9.60
2022-12-15T21:32:47.151Z,-9.44
2022-12-15T21:37:53.431Z,-9.28
2022-12-15T21:43:06.826Z,-9.03
2022-12-15T21:48:31.729Z,-9.01
2022-12-15T21:53:36.610Z,-8.91
2022-12-15T21:58:42.329Z,-8.89
2022-12-15T22:03:54.630Z,-8.84
2022-12-15T22:09:00.453Z,-8.73
2022-12-15T22:14:35.502Z,-8.62
2022-12-15T22:19:39.828Z,-8.53
2022-12-15T22:24:44.637Z,-8.38
2022-12-15T22:29:49.777Z,-8.19
2022-12-15T22:34:53.715Z,-8.07
2022-12-15T22:39:57.072Z,-8.02
2022-12-15T22:45:00.633Z,-7.89
2022-12-15T22:50:07.156Z,-7.76
2022-12-15T22:55:16.658Z,-7.78
2022-12-15T23:00:22.024Z,-7.67
2022-12-15T23:05:27.268Z,-7.65
2022-12-15T23:10:50.472Z,-7.60
2022-12-15T23:16:14.777Z,-7.48
2022-12-15T23:21:22.925Z,-7.37
2022-12-15T23:26:28.202Z,-7.31
2022-12-15T23:31:33.036Z,-7.35
2022-12-15T23:36:38.085Z,-7.34
2022-12-15T23:41:43.332Z,-7.33
2022-12-15T23:46:48.902Z,-7.35
2022-12-15T23:51:52.886Z,-7.28
2022-12-15T23:56:59.579Z,-7.20
